Time;durP1;ratioP1;P1;durP2;ratioP2;P2;SDS_P1;SDS_P2;PMS_P1;PMS_P2;Temp;Humidity;BMP_temperature;BMP_pressure;BME280_temperature;BME280_humidity;BME280_pressure;Samples;Min_cycle;Max_cycle;Signal;HPM_P1;HPM_P2
2023/11/19 00:01:29;;;;;;;;;;;;;;;;;;5059219;28;4876;-71
2023/11/19 00:03:55;;;;;;;;;;;;;;;;;;5056885;28;5025;-72
2023/11/19 00:06:21;;;;;;;;;;;;;;;;;;5064650;28;5265;-71
2023/11/19 00:09:06;;;;;;;;;;;;;;;;;;5023762;28;1188;-70
2023/11/19 00:11:31;;;;;;;;;;;;;;;;;;5069912;28;4763;-70
2023/11/19 00:13:57;;;;;;;;;;;;;;;;;;5056123;28;5109;-70
2023/11/19 00:16:22;;;;;;;;;;;;;;;;;;5067271;28;4676;-76
2023/11/19 00:18:47;;;;;;;;;;;;;;;;;;5067564;28;5086;-71
2023/11/19 00:21:12;;;;;;;;;;;;;;;;;;5059128;28;5061;-70
2023/11/19 00:29:44;;;;;;;;;;;;;;;;;;5055496;28;4800;-69
2023/11/19 00:32:10;;;;;;;;;;;;;;;;;;5042183;28;4548;-71
2023/11/19 00:34:35;;;;;;;;;;;;;;;;;;5060005;28;5073;-70
2023/11/19 00:37:01;;;;;;;;;;;;;;;;;;5067105;28;4971;-70
2023/11/19 00:42:29;;;;;;;;;;;;;;;;;;5065155;28;5063;-70
2023/11/19 00:44:55;;;;;;;;;;;;;;;;;;5074342;28;1232;-69
2023/11/19 00:47:20;;;;;;;;;;;;;;;;;;5070494;28;4980;-70
2023/11/19 00:49:48;;;;;;;;;;;;;;;;;;5042506;28;5027;-69
2023/11/19 00:52:13;;;;;;;;;;;;;;;;;;5060540;28;5050;-70
2023/11/19 00:54:38;;;;;;;;;;;;;;;;;;5050502;28;5020;-70
2023/11/19 00:57:04;;;;;;;;;;;;;;;;;;5051184;28;4528;-70
2023/11/19 00:59:52;;;;;;;;;;;;;;;;;;5056093;28;1910;-70
2023/11/19 01:02:17;;;;;;;;;;;;;;;;;;5062538;28;5010;-70
2023/11/19 01:04:42;;;;;;;;;;;;;;;;;;5059611;28;4918;-71
2023/11/19 01:07:17;;;;;;;;;;;;;;;;;;5061279;28;5106;-70
2023/11/19 01:09:42;;;;;;;;;;;;;;;;;;5057097;28;5068;-70
2023/11/19 01:12:08;;;;;;;;;;;;;;;;;;5058770;28;4514;-69
2023/11/19 01:14:34;;;;;;;;;;;;;;;;;;5055580;28;1153;-70
2023/11/19 01:16:59;;;;;;;;;;;;;;;;;;5059966;28;4996;-70
2023/11/19 01:19:24;;;;;;;;;;;;;;;;;;5048007;28;4732;-70
2023/11/19 01:21:50;;;;;;;;;;;;;;;;;;5068026;28;4474;-70
2023/11/19 01:24:15;;;;;;;;;;;;;;;;;;5063393;28;5064;-70
2023/11/19 01:26:45;;;;;;;;;;;;;;;;;;5063028;28;1022;-69
2023/11/19 01:29:16;;;;;;;;;;;;;;;;;;5055460;28;4993;-74
2023/11/19 01:31:45;;;;;;;;;;;;;;;;;;5040188;28;4882;-70
2023/11/19 01:34:11;;;;;;;;;;;;;;;;;;5063164;28;5056;-75
2023/11/19 01:36:37;;;;;;;;;;;;;;;;;;5044872;28;5124;-70
2023/11/19 01:39:04;;;;;;;;;;;;;;;;;;5048997;28;1914;-70
2023/11/19 01:41:45;;;;;;;;;;;;;;;;;;5068517;28;5144;-70
2023/11/19 01:44:12;;;;;;;;;;;;;;;;;;5060475;28;4401;-70
2023/11/19 01:46:39;;;;;;;;;;;;;;;;;;5050032;28;4722;-70
2023/11/19 01:49:05;;;;;;;;;;;;;;;;;;5049690;28;5011;-70
2023/11/19 01:51:30;;;;;;;;;;;;;;;;;;5067533;28;5035;-70
2023/11/19 01:53:56;;;;;;;;;;;;;;;;;;5044141;28;1382;-73
2023/11/19 01:56:56;;;;;;;;;;;;;;;;;;5053326;28;5112;-70
2023/11/19 01:59:26;;;;;;;;;;;;;;;;;;5063865;28;5071;-70
2023/11/19 02:01:52;;;;;;;;;;;;;;;;;;5051967;28;4462;-70
2023/11/19 02:04:17;;;;;;;;;;;;;;;;;;5048549;28;5044;-71
2023/11/19 02:06:42;;;;;;;;;;;;;;;;;;5068425;28;4504;-71
2023/11/19 02:09:08;;;;;;;;;;;;;;;;;;5063831;28;5649;-70
2023/11/19 02:11:36;;;;;;;;;;;;;;;;;;5049471;28;1052;-71
2023/11/19 02:14:05;;;;;;;;;;;;;;;;;;5044584;28;4444;-71
2023/11/19 02:16:30;;;;;;;;;;;;;;;;;;5069377;28;5436;-70
2023/11/19 02:18:55;;;;;;;;;;;;;;;;;;5066257;28;5137;-71
2023/11/19 02:30:53;;;;;;;;;;;;;;;;;;5055129;28;4501;-71
2023/11/19 02:33:50;;;;;;;;;;;;;;;;;;5074449;28;4985;-70
2023/11/19 02:36:16;;;;;;;;;;;;;;;;;;5066238;28;5029;-70
2023/11/19 02:38:42;;;;;;;;;;;;;;;;;;5052012;28;1906;-70
2023/11/19 02:41:08;;;;;;;;;;;;;;;;;;5057966;28;4410;-70
2023/11/19 02:43:53;;;;;;;;;;;;;;;;;;5065426;28;5028;-69
2023/11/19 02:46:19;;;;;;;;;;;;;;;;;;5043338;28;5047;-72
2023/11/19 02:48:45;;;;;;;;;;;;;;;;;;5044308;28;5081;-70
2023/11/19 02:51:10;;;;;;;;;;;;;;;;;;5057445;28;4643;-70
2023/11/19 02:53:37;;;;;;;;;;;;;;;;;;5050916;28;1655;-70
2023/11/19 02:56:11;;;;;;;;;;;;;;;;;;5045591;28;5918;-70
2023/11/19 02:59:11;;;;;;;;;;;;;;;;;;5051484;28;5009;-70
2023/11/19 03:01:37;;;;;;;;;;;;;;;;;;5073442;28;4973;-70
2023/11/19 03:04:03;;;;;;;;;;;;;;;;;;5056073;28;4649;-70
2023/11/19 03:06:29;;;;;;;;;;;;;;;;;;5058745;28;4661;-70
2023/11/19 03:08:54;;;;;;;;;;;;;;;;;;5069273;28;1173;-70
2023/11/19 03:11:20;;;;;;;;;;;;;;;;;;5073229;28;5171;-70
2023/11/19 03:13:46;;;;;;;;;;;;;;;;;;5070144;28;4698;-70
2023/11/19 03:22:20;;;;;;;;;;;;;;;;;;5067310;28;4503;-72
2023/11/19 03:28:22;;;;;;;;;;;;;;;;;;5071213;28;5046;-70
2023/11/19 03:30:47;;;;;;;;;;;;;;;;;;5068389;28;4655;-75
2023/11/19 03:33:12;;;;;;;;;;;;;;;;;;5070164;28;5100;-70
2023/11/19 03:35:38;;;;;;;;;;;;;;;;;;5061083;28;1270;-70
2023/11/19 03:38:03;;;;;;;;;;;;;;;;;;5068468;28;4440;-70
2023/11/19 03:40:29;;;;;;;;;;;;;;;;;;5064470;28;5858;-70
2023/11/19 03:42:55;;;;;;;;;;;;;;;;;;5054789;28;4629;-70
2023/11/19 03:48:34;;;;;;;;;;;;;;;;;;5072384;28;4896;-70
2023/11/19 03:50:59;;;;;;;;;;;;;;;;;;5068430;28;1090;-73
2023/11/19 03:53:24;;;;;;;;;;;;;;;;;;5067842;28;5040;-69
2023/11/19 03:55:50;;;;;;;;;;;;;;;;;;5052683;28;4509;-69
2023/11/19 03:58:15;;;;;;;;;;;;;;;;;;5060771;28;4465;-69
2023/11/19 04:00:40;;;;;;;;;;;;;;;;;;5072292;28;4496;-69
2023/11/19 04:03:06;;;;;;;;;;;;;;;;;;5067155;28;5469;-70
2023/11/19 04:05:31;;;;;;;;;;;;;;;;;;5070914;28;1275;-69
2023/11/19 04:08:15;;;;;;;;;;;;;;;;;;5055493;28;4852;-69
2023/11/19 04:10:41;;;;;;;;;;;;;;;;;;5036956;28;4707;-70
2023/11/19 04:13:06;;;;;;;;;;;;;;;;;;5062355;28;5203;-69
2023/11/19 04:15:31;;;;;;;;;;;;;;;;;;5062171;28;4507;-69
2023/11/19 04:17:56;;;;;;;;;;;;;;;;;;5061123;28;1989;-69
2023/11/19 04:20:22;;;;;;;;;;;;;;;;;;5058729;28;4414;-72
2023/11/19 04:22:47;;;;;;;;;;;;;;;;;;5054385;28;4499;-69
2023/11/19 04:25:26;;;;;;;;;;;;;;;;;;5053956;28;5340;-69
2023/11/19 04:27:51;;;;;;;;;;;;;;;;;;5069511;28;4874;-69
2023/11/19 04:30:16;;;;;;;;;;;;;;;;;;5064310;28;4993;-69
2023/11/19 04:39:09;;;;;;;;;;;;;;;;;;5054484;28;5076;-69
2023/11/19 04:42:04;;;;;;;;;;;;;;;;;;5054610;28;1131;-69
2023/11/19 04:44:29;;;;;;;;;;;;;;;;;;5035785;28;4944;-69
2023/11/19 04:46:55;;;;;;;;;;;;;;;;;;5058076;28;4564;-69
2023/11/19 04:49:20;;;;;;;;;;;;;;;;;;5073638;28;5020;-69
2023/11/19 04:51:50;;;;;;;;;;;;;;;;;;5073345;28;4582;-69
2023/11/19 04:54:15;;;;;;;;;;;;;;;;;;5057115;28;4989;-69
2023/11/19 04:56:41;;;;;;;;;;;;;;;;;;5078290;28;1287;-69
2023/11/19 05:02:09;;;;;;;;;;;;;;;;;;5078134;28;5004;-69
2023/11/19 05:04:35;;;;;;;;;;;;;;;;;;5077663;28;4916;-69
2023/11/19 05:10:03;;;;;;;;;;;;;;;;;;5076248;28;4525;-69
2023/11/19 05:15:31;;;;;;;;;;;;;;;;;;5077665;28;5066;-69
2023/11/19 05:20:59;;;;;;;;;;;;;;;;;;5078280;28;6041;-69
2023/11/19 05:23:25;;;;;;;;;;;;;;;;;;5077637;28;1087;-69
2023/11/19 05:25:50;;;;;;;;;;;;;;;;;;5060079;28;1025;-69
2023/11/19 05:28:16;;;;;;;;;;;;;;;;;;5077539;28;1079;-70
2023/11/19 05:33:43;;;;;;;;;;;;;;;;;;5077540;28;591;-69
2023/11/19 05:36:10;;;;;;;;;;;;;;;;;;5076780;28;4998;-69
2023/11/19 05:38:36;;;;;;;;;;;;;;;;;;5077325;28;1992;-69
2023/11/19 05:44:04;;;;;;;;;;;;;;;;;;5077365;28;4396;-69
2023/11/19 05:52:36;;;;;;;;;;;;;;;;;;5066625;28;4694;-70
2023/11/19 05:55:09;;;;;;;;;;;;;;;;;;5065719;28;4601;-71
2023/11/19 05:57:34;;;;;;;;;;;;;;;;;;5035441;28;4802;-68
2023/11/19 06:00:00;;;;;;;;;;;;;;;;;;5069054;28;1423;-70
2023/11/19 06:02:27;;;;;;;;;;;;;;;;;;5071829;28;5095;-70
2023/11/19 06:04:53;;;;;;;;;;;;;;;;;;5063813;28;4591;-70
2023/11/19 06:07:18;;;;;;;;;;;;;;;;;;5052824;28;5055;-75
2023/11/19 06:09:43;;;;;;;;;;;;;;;;;;5042598;28;5187;-70
2023/11/19 06:12:09;;;;;;;;;;;;;;;;;;5027169;28;5122;-70
2023/11/19 06:14:34;;;;;;;;;;;;;;;;;;5061125;28;1104;-71
2023/11/19 06:17:33;;;;;;;;;;;;;;;;;;5034536;28;5073;-70
2023/11/19 06:19:59;;;;;;;;;;;;;;;;;;5061401;28;4965;-71
2023/11/19 06:22:25;;;;;;;;;;;;;;;;;;5043765;28;4964;-71
2023/11/19 06:24:50;;;;;;;;;;;;;;;;;;5058932;28;4540;-70
2023/11/19 06:27:15;;;;;;;;;;;;;;;;;;5047596;28;4630;-71
2023/11/19 06:29:41;;;;;;;;;;;;;;;;;;5055082;28;5048;-70
2023/11/19 06:32:07;;;;;;;;;;;;;;;;;;5060175;28;5127;-70
2023/11/19 06:34:33;;;;;;;;;;;;;;;;;;5043117;28;5187;-70
2023/11/19 06:36:58;;;;;;;;;;;;;;;;;;5071824;28;4672;-71
2023/11/19 06:39:25;;;;;;;;;;;;;;;;;;5073391;28;5094;-74
2023/11/19 06:41:50;;;;;;;;;;;;;;;;;;5037878;28;970;-70
2023/11/19 06:44:16;;;;;;;;;;;;;;;;;;5066651;28;4952;-70
2023/11/19 06:46:41;;;;;;;;;;;;;;;;;;5052111;28;4946;-70
2023/11/19 06:49:09;;;;;;;;;;;;;;;;;;5065691;28;5156;-69
2023/11/19 06:51:35;;;;;;;;;;;;;;;;;;5070236;28;4967;-70
2023/11/19 06:54:00;;;;;;;;;;;;;;;;;;5073910;28;1211;-69
2023/11/19 06:56:26;;;;;;;;;;;;;;;;;;5075184;28;5080;-70
2023/11/19 06:58:51;;;;;;;;;;;;;;;;;;5064086;28;5151;-75
2023/11/19 07:01:17;;;;;;;;;;;;;;;;;;5071909;28;5015;-69
2023/11/19 07:03:44;;;;;;;;;;;;;;;;;;5048010;28;4758;-69
2023/11/19 07:06:09;;;;;;;;;;;;;;;;;;5071965;28;4632;-69
2023/11/19 07:08:36;;;;;;;;;;;;;;;;;;5062998;28;1261;-69
2023/11/19 07:11:01;;;;;;;;;;;;;;;;;;5035357;28;4639;-68
2023/11/19 07:13:27;;;;;;;;;;;;;;;;;;5065409;28;5150;-68
2023/11/19 07:15:53;;;;;;;;;;;;;;;;;;5042334;28;5047;-69
2023/11/19 07:24:37;;;;;;;;;;;;;;;;;;5069239;28;5054;-69
2023/11/19 07:27:13;;;;;;;;;;;;;;;;;;5059670;28;1188;-69
2023/11/19 07:29:38;;;;;;;;;;;;;;;;;;5056649;28;5458;-69
2023/11/19 07:32:05;;;;;;;;;;;;;;;;;;5069796;28;5209;-70
2023/11/19 07:34:31;;;;;;;;;;;;;;;;;;5055996;28;5027;-70
2023/11/19 07:37:02;;;;;;;;;;;;;;;;;;5071409;28;4900;-58
2023/11/19 07:39:27;;;;;;;;;;;;;;;;;;5072893;28;5162;-58
2023/11/19 07:41:52;;;;;;;;;;;;;;;;;;5056953;28;1076;-60
2023/11/19 07:44:18;;;;;;;;;;;;;;;;;;5064142;28;5829;-61
2023/11/19 07:46:44;;;;;;;;;;;;;;;;;;5064628;28;4899;-61
2023/11/19 07:49:10;;;;;;;;;;;;;;;;;;5061670;28;5774;-61
2023/11/19 07:51:36;;;;;;;;;;;;;;;;;;5059233;28;4828;-61
2023/11/19 07:54:01;;;;;;;;;;;;;;;;;;5044260;28;3358;-62
2023/11/19 07:56:27;;;;;;;;;;;;;;;;;;5064511;28;4862;-62
2023/11/19 07:58:52;;;;;;;;;;;;;;;;;;5041234;28;5080;-61
2023/11/19 08:01:18;;;;;;;;;;;;;;;;;;5062712;28;5046;-62
2023/11/19 08:03:43;;;;;;;;;;;;;;;;;;5056869;28;4518;-61
2023/11/19 08:06:08;;;;;;;;;;;;;;;;;;5062052;28;5217;-65
2023/11/19 08:08:34;;;;;;;;;;;;;;;;;;5055103;28;3040;-66
2023/11/19 08:11:00;;;;;;;;;;;;;;;;;;5039697;28;4499;-66
2023/11/19 08:13:26;;;;;;;;;;;;;;;;;;5070020;28;4912;-66
2023/11/19 08:15:51;;;;;;;;;;;;;;;;;;5047723;28;5066;-65
2023/11/19 08:18:18;;;;;;;;;;;;;;;;;;5069779;28;5140;-66
2023/11/19 08:20:44;;;;;;;;;;;;;;;;;;5066942;28;1189;-66
2023/11/19 08:23:09;;;;;;;;;;;;;;;;;;5063682;28;4976;-64
2023/11/19 08:28:37;;;;;;;;;;;;;;;;;;5058289;28;4607;-69
2023/11/19 08:31:05;;;;;;;;;;;;;;;;;;5071608;28;5029;-74
2023/11/19 08:33:31;;;;;;;;;;;;;;;;;;5033634;28;4727;-69
2023/11/19 08:35:58;;;;;;;;;;;;;;;;;;5067192;28;1579;-68
2023/11/19 08:38:24;;;;;;;;;;;;;;;;;;5058476;28;5042;-71
2023/11/19 08:40:49;;;;;;;;;;;;;;;;;;5038332;28;4728;-72
2023/11/19 08:43:14;;;;;;;;;;;;;;;;;;5056993;28;4599;-76
2023/11/19 08:45:39;;;;;;;;;;;;;;;;;;5058445;28;5179;-73
2023/11/19 08:48:05;;;;;;;;;;;;;;;;;;5054611;28;5077;-70
2023/11/19 08:50:30;;;;;;;;;;;;;;;;;;5042990;28;2888;-65
2023/11/19 08:52:56;;;;;;;;;;;;;;;;;;5052775;28;5101;-64
2023/11/19 08:55:21;;;;;;;;;;;;;;;;;;5036708;28;5012;-58
2023/11/19 08:57:47;;;;;;;;;;;;;;;;;;5053514;28;4739;-67
2023/11/19 09:00:14;;;;;;;;;;;;;;;;;;5064291;28;5028;-65
2023/11/19 09:02:42;;;;;;;;;;;;;;;;;;5034477;28;3658;-62
2023/11/19 09:05:08;;;;;;;;;;;;;;;;;;5059748;28;5006;-62
2023/11/19 09:07:33;;;;;;;;;;;;;;;;;;5049635;28;5018;-63
2023/11/19 09:09:59;;;;;;;;;;;;;;;;;;5060363;28;4611;-67
2023/11/19 09:15:27;;;;;;;;;;;;;;;;;;5053620;28;4609;-67
2023/11/19 09:20:56;;;;;;;;;;;;;;;;;;5054426;28;4548;-67
2023/11/19 09:26:24;;;;;;;;;;;;;;;;;;5053188;28;4949;-60
2023/11/19 09:38:33;;;;;;;;;;;;;;;;;;5063689;28;4499;-61
2023/11/19 09:44:00;;;;;;;;;;;;;;;;;;5075156;28;4405;-66
2023/11/19 09:49:29;;;;;;;;;;;;;;;;;;5076692;28;5068;-70
2023/11/19 09:51:54;;;;;;;;;;;;;;;;;;5076559;28;4621;-64
2023/11/19 09:54:19;;;;;;;;;;;;;;;;;;5076708;28;4401;-65
2023/11/19 09:56:44;;;;;;;;;;;;;;;;;;5077017;28;1123;-60
2023/11/19 10:02:13;;;;;;;;;;;;;;;;;;5076491;28;4392;-58
2023/11/19 10:04:38;;;;;;;;;;;;;;;;;;5049703;28;4477;-60
2023/11/19 10:07:04;;;;;;;;;;;;;;;;;;5040431;28;4960;-66
2023/11/19 10:09:29;;;;;;;;;;;;;;;;;;5056147;28;4809;-67
2023/11/19 10:11:57;;;;;;;;;;;;;;;;;;5037031;28;3033;-67
2023/11/19 10:14:22;;;;;;;;;;;;;;;;;;5037645;28;5129;-67
2023/11/19 10:16:48;;;;;;;;;;;;;;;;;;5032038;28;5172;-60
2023/11/19 10:19:31;;;;;;;;;;;;;;;;;;5054020;28;5160;-61
2023/11/19 10:21:56;;;;;;;;;;;;;;;;;;5059906;28;4691;-60
2023/11/19 10:24:31;;;;;;;;;;;;;;;;;;5050660;28;4963;-62
2023/11/19 10:27:03;;;;;;;;;;;;;;;;;;5058774;28;3221;-61
2023/11/19 10:29:36;;;;;;;;;;;;;;;;;;5054403;28;4711;-60
2023/11/19 10:32:01;;;;;;;;;;;;;;;;;;5063138;28;4972;-60
2023/11/19 10:34:44;;;;;;;;;;;;;;;;;;5053789;28;4763;-61
2023/11/19 10:37:09;;;;;;;;;;;;;;;;;;5059340;28;5145;-61
2023/11/19 10:39:56;;;;;;;;;;;;;;;;;;5049429;28;4690;-60
2023/11/19 10:42:22;;;;;;;;;;;;;;;;;;5062544;28;5092;-59
2023/11/19 10:44:48;;;;;;;;;;;;;;;;;;5057451;28;3059;-61
2023/11/19 10:47:18;;;;;;;;;;;;;;;;;;5038086;28;4474;-61
2023/11/19 10:49:45;;;;;;;;;;;;;;;;;;5055159;28;5001;-61
2023/11/19 10:52:11;;;;;;;;;;;;;;;;;;5054754;28;5099;-61
2023/11/19 10:54:36;;;;;;;;;;;;;;;;;;5037778;28;4951;-61
2023/11/19 11:00:12;;;;;;;;;;;;;;;;;;5056024;28;5173;-61
2023/11/19 11:02:37;;;;;;;;;;;;;;;;;;5039592;28;1409;-60
2023/11/19 11:05:03;;;;;;;;;;;;;;;;;;5054793;28;5085;-61
2023/11/19 11:07:29;;;;;;;;;;;;;;;;;;5033338;28;5231;-61
2023/11/19 11:12:58;;;;;;;;;;;;;;;;;;5035368;28;5087;-60
2023/11/19 11:15:27;;;;;;;;;;;;;;;;;;5017150;28;4995;-58
2023/11/19 11:17:52;;;;;;;;;;;;;;;;;;5037479;28;1910;-59
2023/11/19 11:20:18;;;;;;;;;;;;;;;;;;5054898;28;5788;-59
2023/11/19 11:28:56;;;;;;;;;;;;;;;;;;5034859;28;5171;-57
2023/11/19 11:31:31;;;;;;;;;;;;;;;;;;5016851;28;5162;-57
2023/11/19 11:34:02;;;;;;;;;;;;;;;;;;5034767;28;4820;-56
2023/11/19 11:36:27;;;;;;;;;;;;;;;;;;5034328;28;5089;-56
2023/11/19 11:38:52;;;;;;;;;;;;;;;;;;5017317;28;1973;-57
2023/11/19 11:41:22;;;;;;;;;;;;;;;;;;5016559;28;4900;-57
2023/11/19 11:43:49;;;;;;;;;;;;;;;;;;5031364;28;5126;-57
2023/11/19 11:49:17;;;;;;;;;;;;;;;;;;5054875;28;4372;-57
2023/11/19 12:00:50;;;;;;;;;;;;;;;;;;5054130;28;4446;-57
2023/11/19 12:03:16;;;;;;;;;;;;;;;;;;5047515;28;4479;-58
2023/11/19 12:05:42;;;;;;;;;;;;;;;;;;5050918;28;1083;-58
2023/11/19 12:08:10;;;;;;;;;;;;;;;;;;5058373;28;5157;-57
2023/11/19 12:13:56;;;;;;;;;;;;;;;;;;5074222;28;4600;-57
2023/11/19 12:16:21;;;;;;;;;;;;;;;;;;5072059;28;5062;-59
2023/11/19 12:18:46;;;;;;;;;;;;;;;;;;5071685;28;5038;-58
2023/11/19 12:21:12;;;;;;;;;;;;;;;;;;5070880;28;5113;-57
2023/11/19 12:26:40;;;;;;;;;;;;;;;;;;5054573;28;4583;-56
2023/11/19 12:32:08;;;;;;;;;;;;;;;;;;5054481;28;4441;-57
2023/11/19 12:37:44;;;;;;;;;;;;;;;;;;5053891;28;4443;-58
2023/11/19 12:43:20;;;;;;;;;;;;;;;;;;5053696;28;4606;-57
2023/11/19 12:48:51;;;;;;;;;;;;;;;;;;5074068;28;4717;-56
2023/11/19 12:54:19;;;;;;;;;;;;;;;;;;5073995;28;4653;-56
2023/11/19 12:56:52;;;;;;;;;;;;;;;;;;5039359;28;1212;-56
2023/11/19 12:59:17;;;;;;;;;;;;;;;;;;5058064;28;4597;-56
2023/11/19 13:01:53;;;;;;;;;;;;;;;;;;5054074;28;5019;-56
2023/11/19 13:04:19;;;;;;;;;;;;;;;;;;5064797;28;5075;-56
2023/11/19 13:06:47;;;;;;;;;;;;;;;;;;5068140;28;4961;-56
2023/11/19 13:09:46;;;;;;;;;;;;;;;;;;5037988;28;5029;-57
2023/11/19 13:12:27;;;;;;;;;;;;;;;;;;5066642;28;4711;-57
2023/11/19 13:14:53;;;;;;;;;;;;;;;;;;5067512;28;1141;-58
2023/11/19 13:20:21;;;;;;;;;;;;;;;;;;5077431;28;5158;-57
2023/11/19 13:25:49;;;;;;;;;;;;;;;;;;5058511;28;4913;-57
2023/11/19 13:28:15;;;;;;;;;;;;;;;;;;5065855;28;4452;-57
2023/11/19 13:30:40;;;;;;;;;;;;;;;;;;5072124;28;4512;-57
2023/11/19 13:33:05;;;;;;;;;;;;;;;;;;5063985;28;4448;-57
2023/11/19 13:38:36;;;;;;;;;;;;;;;;;;5051799;28;4778;-59
2023/11/19 13:41:12;;;;;;;;;;;;;;;;;;5052511;28;5041;-58
2023/11/19 13:43:37;;;;;;;;;;;;;;;;;;5050487;28;5544;-59
2023/11/19 13:46:02;;;;;;;;;;;;;;;;;;5050153;28;4711;-58
2023/11/19 13:48:28;;;;;;;;;;;;;;;;;;5048700;28;5120;-58
2023/11/19 13:50:54;;;;;;;;;;;;;;;;;;5049206;28;1300;-57
2023/11/19 13:53:19;;;;;;;;;;;;;;;;;;5053102;28;5017;-61
2023/11/19 13:55:45;;;;;;;;;;;;;;;;;;5063201;28;5015;-55
2023/11/19 13:58:11;;;;;;;;;;;;;;;;;;5063818;28;5131;-62
2023/11/19 14:00:36;;;;;;;;;;;;;;;;;;5060040;28;4820;-57
2023/11/19 14:03:02;;;;;;;;;;;;;;;;;;5034961;28;1141;-57
2023/11/19 14:08:30;;;;;;;;;;;;;;;;;;5051112;28;4583;-57
2023/11/19 14:10:56;;;;;;;;;;;;;;;;;;5065278;28;4986;-57
2023/11/19 14:13:21;;;;;;;;;;;;;;;;;;5049790;28;5058;-57
2023/11/19 14:16:12;;;;;;;;;;;;;;;;;;5037354;28;5006;-57
2023/11/19 14:18:38;;;;;;;;;;;;;;;;;;5052532;28;5072;-56
2023/11/19 14:24:00;;;;;;;;;;;;;;;;;;5074533;28;5206;-57
2023/11/19 14:29:37;;;;;;;;;;;;;;;;;;5050888;28;4704;-57
2023/11/19 14:38:07;;;;;;;;;;;;;;;;;;5053465;28;5063;-58
2023/11/19 14:40:32;;;;;;;;;;;;;;;;;;5052291;28;4517;-56
2023/11/19 14:42:57;;;;;;;;;;;;;;;;;;5063233;28;5722;-55
2023/11/19 14:48:25;;;;;;;;;;;;;;;;;;5059716;28;4485;-55
2023/11/19 14:50:51;;;;;;;;;;;;;;;;;;5060608;28;1160;-55
2023/11/19 14:53:16;;;;;;;;;;;;;;;;;;5056133;28;5026;-55
2023/11/19 14:55:42;;;;;;;;;;;;;;;;;;5060191;28;4648;-56
2023/11/19 14:58:07;;;;;;;;;;;;;;;;;;5066517;28;4518;-57
2023/11/19 15:00:33;;;;;;;;;;;;;;;;;;5051222;28;4697;-56
2023/11/19 15:06:02;;;;;;;;;;;;;;;;;;5055629;28;5409;-57
2023/11/19 15:08:27;;;;;;;;;;;;;;;;;;5055397;28;1238;-57
2023/11/19 15:10:52;;;;;;;;;;;;;;;;;;5054358;28;4584;-57
2023/11/19 15:13:18;;;;;;;;;;;;;;;;;;5053409;28;5630;-57
2023/11/19 15:18:46;;;;;;;;;;;;;;;;;;5053517;28;5545;-57
2023/11/19 15:21:13;;;;;;;;;;;;;;;;;;5050688;28;5096;-57
2023/11/19 15:23:38;;;;;;;;;;;;;;;;;;5061754;28;1095;-57
2023/11/19 15:26:04;;;;;;;;;;;;;;;;;;5065073;28;4930;-57
2023/11/19 15:34:52;;;;;;;;;;;;;;;;;;5054572;28;5103;-57
2023/11/19 15:37:17;;;;;;;;;;;;;;;;;;5049297;28;5106;-57
2023/11/19 15:39:43;;;;;;;;;;;;;;;;;;5050932;28;5122;-57
2023/11/19 15:42:10;;;;;;;;;;;;;;;;;;5052981;28;4457;-57
2023/11/19 15:45:07;;;;;;;;;;;;;;;;;;5058568;28;965;-57
2023/11/19 15:54:05;;;;;;;;;;;;;;;;;;5050204;28;4607;-57
2023/11/19 15:57:05;;;;;;;;;;;;;;;;;;5034593;28;5150;-57
2023/11/19 15:59:31;;;;;;;;;;;;;;;;;;5050270;28;4704;-57
2023/11/19 16:01:57;;;;;;;;;;;;;;;;;;5047864;28;5095;-57
2023/11/19 16:04:22;;;;;;;;;;;;;;;;;;5054133;28;5166;-57
2023/11/19 16:06:48;;;;;;;;;;;;;;;;;;5031752;28;5111;-57
2023/11/19 16:09:19;;;;;;;;;;;;;;;;;;5062459;28;4951;-57
2023/11/19 16:11:46;;;;;;;;;;;;;;;;;;5059469;28;1131;-57
2023/11/19 16:14:12;;;;;;;;;;;;;;;;;;5049948;28;5078;-56
2023/11/19 16:16:37;;;;;;;;;;;;;;;;;;5034443;28;4512;-56
2023/11/19 16:19:05;;;;;;;;;;;;;;;;;;5047356;28;5156;-57
2023/11/19 16:21:32;;;;;;;;;;;;;;;;;;5031071;28;5092;-57
2023/11/19 16:24:01;;;;;;;;;;;;;;;;;;5035329;28;2293;-59
2023/11/19 16:26:26;;;;;;;;;;;;;;;;;;5031612;28;4505;-57
2023/11/19 16:28:53;;;;;;;;;;;;;;;;;;5057283;28;4580;-57
2023/11/19 16:31:18;;;;;;;;;;;;;;;;;;5061113;28;5125;-57
2023/11/19 16:33:43;;;;;;;;;;;;;;;;;;5073471;28;4823;-57
2023/11/19 16:36:09;;;;;;;;;;;;;;;;;;5032595;28;5050;-56
2023/11/19 16:38:34;;;;;;;;;;;;;;;;;;5034694;28;1909;-56
2023/11/19 16:41:06;;;;;;;;;;;;;;;;;;5049782;28;4428;-56
2023/11/19 16:43:32;;;;;;;;;;;;;;;;;;5047279;28;4884;-56
2023/11/19 16:45:58;;;;;;;;;;;;;;;;;;5049988;28;4477;-56
2023/11/19 16:48:43;;;;;;;;;;;;;;;;;;5032480;28;5097;-56
2023/11/19 16:54:12;;;;;;;;;;;;;;;;;;5057764;28;5098;-57
2023/11/19 16:56:38;;;;;;;;;;;;;;;;;;5034971;28;1714;-56
2023/11/19 17:05:09;;;;;;;;;;;;;;;;;;5075530;28;5070;-56
2023/11/19 17:07:34;;;;;;;;;;;;;;;;;;5062599;28;4444;-56
2023/11/19 17:10:00;;;;;;;;;;;;;;;;;;5054054;28;5118;-57
2023/11/19 17:12:25;;;;;;;;;;;;;;;;;;5053781;28;5022;-56
2023/11/19 17:14:52;;;;;;;;;;;;;;;;;;5063537;28;1055;-57
2023/11/19 17:17:18;;;;;;;;;;;;;;;;;;5059291;28;4813;-57
2023/11/19 17:19:43;;;;;;;;;;;;;;;;;;5067140;28;4940;-56
2023/11/19 17:22:08;;;;;;;;;;;;;;;;;;5066150;28;4921;-58
2023/11/19 17:24:33;;;;;;;;;;;;;;;;;;5061632;28;5051;-56
2023/11/19 17:26:59;;;;;;;;;;;;;;;;;;5075674;28;1959;-57
2023/11/19 17:29:24;;;;;;;;;;;;;;;;;;5054837;28;4698;-57
2023/11/19 17:38:21;;;;;;;;;;;;;;;;;;5073251;28;4428;-57
2023/11/19 17:40:47;;;;;;;;;;;;;;;;;;5053199;28;4685;-56
2023/11/19 17:43:14;;;;;;;;;;;;;;;;;;5053682;28;5054;-57
2023/11/19 17:45:39;;;;;;;;;;;;;;;;;;5035765;28;4878;-57
2023/11/19 17:48:05;;;;;;;;;;;;;;;;;;5050381;28;4438;-55
2023/11/19 17:50:34;;;;;;;;;;;;;;;;;;5052290;28;1049;-56
2023/11/19 17:53:00;;;;;;;;;;;;;;;;;;5050472;28;4828;-56
2023/11/19 17:55:26;;;;;;;;;;;;;;;;;;5054238;28;5094;-56
2023/11/19 17:57:51;;;;;;;;;;;;;;;;;;5049676;28;4472;-55
2023/11/19 18:00:16;;;;;;;;;;;;;;;;;;5053440;28;5489;-57
2023/11/19 18:02:58;;;;;;;;;;;;;;;;;;5055352;28;955;-57
2023/11/19 18:05:31;;;;;;;;;;;;;;;;;;5051641;28;5980;-57
2023/11/19 18:08:04;;;;;;;;;;;;;;;;;;5050494;28;4441;-56
2023/11/19 18:10:30;;;;;;;;;;;;;;;;;;5050192;28;4461;-56
2023/11/19 18:13:03;;;;;;;;;;;;;;;;;;5055133;28;5076;-56
2023/11/19 18:15:28;;;;;;;;;;;;;;;;;;5052910;28;4862;-56
2023/11/19 18:17:54;;;;;;;;;;;;;;;;;;5049671;28;1450;-59
2023/11/19 18:20:19;;;;;;;;;;;;;;;;;;5052684;28;5163;-57
2023/11/19 18:25:49;;;;;;;;;;;;;;;;;;5055272;28;4460;-56
2023/11/19 18:28:16;;;;;;;;;;;;;;;;;;5057527;28;4497;-56
2023/11/19 18:30:50;;;;;;;;;;;;;;;;;;5062583;28;4460;-56
2023/11/19 18:33:15;;;;;;;;;;;;;;;;;;5035237;28;5234;-56
2023/11/19 18:35:40;;;;;;;;;;;;;;;;;;5048231;28;1016;-56
2023/11/19 18:38:06;;;;;;;;;;;;;;;;;;5030625;28;5142;-57
2023/11/19 18:46:37;;;;;;;;;;;;;;;;;;5048820;28;5137;-56
2023/11/19 18:49:06;;;;;;;;;;;;;;;;;;5055805;28;4925;-57
2023/11/19 18:51:31;;;;;;;;;;;;;;;;;;5037313;28;4459;-57
2023/11/19 18:53:57;;;;;;;;;;;;;;;;;;5052860;28;1008;-57
2023/11/19 18:56:23;;;;;;;;;;;;;;;;;;5051235;28;5000;-57
2023/11/19 18:58:49;;;;;;;;;;;;;;;;;;5021095;28;5061;-57
2023/11/19 19:01:15;;;;;;;;;;;;;;;;;;5050371;28;5049;-55
2023/11/19 19:03:40;;;;;;;;;;;;;;;;;;5054223;28;4576;-57
2023/11/19 19:06:07;;;;;;;;;;;;;;;;;;5053155;28;5040;-56
2023/11/19 19:08:32;;;;;;;;;;;;;;;;;;5055483;28;1507;-57
2023/11/19 19:10:58;;;;;;;;;;;;;;;;;;5033822;28;5244;-57
2023/11/19 19:13:25;;;;;;;;;;;;;;;;;;5044626;28;5082;-57
2023/11/19 19:15:50;;;;;;;;;;;;;;;;;;5049302;28;4806;-56
2023/11/19 19:21:21;;;;;;;;;;;;;;;;;;5055324;28;4426;-58
2023/11/19 19:26:49;;;;;;;;;;;;;;;;;;5055829;28;5638;-57
2023/11/19 19:32:20;;;;;;;;;;;;;;;;;;5055110;28;4662;-56
2023/11/19 19:37:50;;;;;;;;;;;;;;;;;;5054852;28;4425;-57
2023/11/19 19:43:18;;;;;;;;;;;;;;;;;;5055746;28;5025;-56
2023/11/19 19:45:43;;;;;;;;;;;;;;;;;;5074347;28;4449;-56
2023/11/19 19:48:16;;;;;;;;;;;;;;;;;;5074150;28;4624;-56
2023/11/19 19:53:44;;;;;;;;;;;;;;;;;;5073756;28;4758;-56
2023/11/19 19:56:12;;;;;;;;;;;;;;;;;;5056097;28;4599;-57
2023/11/19 19:58:39;;;;;;;;;;;;;;;;;;5061107;28;4899;-57
2023/11/19 20:01:07;;;;;;;;;;;;;;;;;;5053656;28;4558;-57
2023/11/19 20:06:37;;;;;;;;;;;;;;;;;;5054284;28;5087;-56
2023/11/19 20:09:15;;;;;;;;;;;;;;;;;;5053741;28;1193;-56
2023/11/19 20:11:43;;;;;;;;;;;;;;;;;;5054237;28;5128;-57
2023/11/19 20:14:09;;;;;;;;;;;;;;;;;;5020212;28;5070;-56
2023/11/19 20:16:34;;;;;;;;;;;;;;;;;;5027893;28;4562;-57
2023/11/19 20:19:00;;;;;;;;;;;;;;;;;;5055493;28;5090;-57
2023/11/19 20:21:29;;;;;;;;;;;;;;;;;;5044608;28;4616;-57
2023/11/19 20:23:55;;;;;;;;;;;;;;;;;;5037363;28;3134;-56
2023/11/19 20:26:22;;;;;;;;;;;;;;;;;;5044496;28;4966;-56
2023/11/19 20:28:47;;;;;;;;;;;;;;;;;;5054399;28;5054;-56
2023/11/19 20:31:13;;;;;;;;;;;;;;;;;;5051658;28;4685;-57
2023/11/19 20:33:39;;;;;;;;;;;;;;;;;;5045881;28;5058;-57
2023/11/19 20:36:09;;;;;;;;;;;;;;;;;;5052542;28;5129;-56
2023/11/19 20:38:42;;;;;;;;;;;;;;;;;;5046973;28;3176;-60
2023/11/19 20:41:09;;;;;;;;;;;;;;;;;;5060509;28;4516;-58
2023/11/19 20:43:35;;;;;;;;;;;;;;;;;;5052835;28;4645;-57
2023/11/19 20:46:03;;;;;;;;;;;;;;;;;;5036512;28;4935;-60
2023/11/19 20:48:29;;;;;;;;;;;;;;;;;;5055805;28;5208;-59
2023/11/19 20:50:55;;;;;;;;;;;;;;;;;;5074263;28;1075;-58
2023/11/19 20:59:26;;;;;;;;;;;;;;;;;;5054389;28;4508;-57
2023/11/19 21:04:55;;;;;;;;;;;;;;;;;;5053267;28;4507;-57
2023/11/19 21:07:20;;;;;;;;;;;;;;;;;;5018756;28;4465;-56
2023/11/19 21:15:49;;;;;;;;;;;;;;;;;;5072898;28;4896;-56
2023/11/19 21:18:15;;;;;;;;;;;;;;;;;;5032712;28;4544;-56